Flight Track Log - Related Links

Times and Time Zones

All times are in EST time to prevent confusion due to time zone crossing. See the JTA613 flight status page for this flight to view local times or setup timezone preferences in your user account.

Time Position Orientation Groundspeed Altitude Reporting Facility
EST Latitude Longitude Course Direction KTS MPH feet Rate Location/Type
Sat 12:34:00 AM 26.0633 127.3896 240° Southwest  Level Estimated
Sat 12:35:00 AM 26.0191 127.3043 240° Southwest  Level Estimated
Sat 12:36:00 AM 25.9748 127.2190 240° Southwest  Level Estimated
Sat 12:37:00 AM 25.9304 127.1338 240° Southwest  Level Estimated
Sat 12:38:00 AM 25.8860 127.0487 240° Southwest  Level Estimated
Sat 12:39:00 AM 25.8415 126.9637 240° Southwest  Level Estimated
Sat 12:40:00 AM 25.7970 126.8787 240° Southwest  Level Estimated
Sat 12:41:00 AM 25.7525 126.7937 240° Southwest  Level Estimated
Sat 12:42:00 AM 25.7079 126.7089 240° Southwest  Level Estimated
Sat 12:43:00 AM 25.6632 126.6241 240° Southwest  Level Estimated
Sat 12:44:00 AM 25.6185 126.5394 240° Southwest  Level Estimated
Sat 12:45:00 AM 25.5737 126.4547 240° Southwest  Level Estimated
Sat 12:46:00 AM 25.5289 126.3701 240° Southwest  Level Estimated
Sat 12:47:00 AM 25.4841 126.2855 240° Southwest  Level Estimated
Sat 12:48:00 AM 25.4392 126.2011 240° Southwest  Level Estimated
Sat 12:49:00 AM 25.3942 126.1166 239° Southwest  Level Estimated
Sat 12:50:00 AM 25.3492 126.0323 239° Southwest  Level Estimated
Sat 12:51:00 AM 25.3042 125.9480 239° Southwest  Level Estimated
Sat 12:52:00 AM 25.2591 125.8638 239° Southwest  Level Estimated
Sat 12:53:00 AM 25.2140 125.7796 239° Southwest  Level Estimated
Sat 12:54:00 AM 25.1688 125.6955 239° Southwest  Level Estimated
Sat 12:55:00 AM 25.1235 125.6115 239° Southwest  Level Estimated
Sat 12:56:00 AM 25.0783 125.5275 239° Southwest  Level Estimated
Sat 12:57:00 AM 25.0329 125.4436 239° Southwest  Level Estimated
Sat 12:58:00 AM 24.9876 125.3597 239° Southwest  Level Estimated
Sat 12:59:00 AM 24.9421 125.2759 239° Southwest  Level Estimated
Sat 01:00:00 AM 24.8967 125.1922 239° Southwest  Level Estimated
Sat 01:01:00 AM 24.8511 125.1085 239° Southwest  Level Estimated
Sat 01:02:00 AM 24.8056 125.0249 239° Southwest  Level Estimated
Sat 01:03:00 AM 24.7600 124.9414 239° Southwest  Level Estimated
Sat 01:04:00 AM 24.7143 124.8579 239° Southwest  Level Estimated
Sat 01:05:00 AM 24.6686 124.7744 239° Southwest  Level Estimated
Sat 01:06:00 AM 24.6229 124.6911 239° Southwest  Level Estimated
Sat 01:07:00 AM 24.5771 124.6078 239° Southwest  Level Estimated
Sat 01:08:00 AM 24.5312 124.5245 239° Southwest  Level Estimated
Sat 01:09:00 AM 24.4853 124.4414 239° Southwest  Level Estimated
Sat 01:10:00 AM 24.4394 124.3582 239° Southwest  Level Estimated
Sat 01:11:00 AM 24.3934 124.2752 239° Southwest  Level Estimated
Sat 01:12:00 AM 24.3474 124.1922 239° Southwest  Level Estimated
Sat 01:13:00 AM 24.3445 124.1870 239° Southwest  Level Estimated
Sat 01:14:00 AM 24.3445 124.1870 29° Northeast  Level Estimated
Sat 01:15:00 AM 24.3445 124.1870 29° Northeast  Level Estimated
Sat 01:16:00 AM 24.3445 124.1870 29° Northeast  Level Estimated
Sat 01:17:00 AM 24.3445 124.1870 29° Northeast  Level Estimated
Sat 01:18:00 AM 24.3445 124.1870 29° Northeast  Level Estimated

Login

Don't have an account? Register now (free) for customized features, flight alerts, and more!